Putnam, Texas
Current Conditions -  °F | °C
As of 7:52 AM on Thursday 23 Oct 2014 (Local Time) from KABI Reporting Station
Broken Clouds Broken Clouds  
Wind Chill: 60°   Ceiling: 4400
Heat Index: 60°   Visibility: 10mi
Dew Point: 55°   Wind: 7mph
Humidity: 83%   Direction: 170°S
Pressure: 30.13"   Gusts: NA
Location:  32.37°N, 99.19°W
Report Text: KABI 231252Z 17006KT 10SM BKN044 16/13 A3013 RMK AO2 SLP186 T01560128
Loading
Personal Weather Stations






























Interactive Weather Map
Tropical Storm Tracking
New forecast layout! Learn more

10-Day Weather Forecast

Advertisements
Track Severe Weather on mobile